East Camden, Arkansas
Current Conditions -  °F | °C
As of 1:15 PM on Saturday 25 Oct 2014 (Local Time) from KCDH Reporting Station
Haze Haze  
Wind Chill: 82°   Ceiling: Unl
Heat Index: 82°   Visibility: 6mi
Dew Point: 59°   Wind: 7mph
Humidity: 45%   Direction: 50°NE
Pressure: 30.11"   Gusts: NA
Location:  33.7068°N, 92.7709°W
Report Text: KCDH 251815Z AUTO 05006KT 6SM HZ CLR 28/15 A3011 RMK AO2
Loading
Personal Weather Stations






























Interactive Weather Map
Tropical Storm Tracking
New forecast layout! Learn more

10-Day Weather Forecast

Advertisements
Track Severe Weather on mobile